Fiske, Canada
Current Conditions -  °F | °C
As of 9:00 AM on Wednesday 22 Oct 2014 (Local Time) from CYKY Reporting Station
Broken Clouds Broken Clouds  
Wind Chill: 41°   Ceiling: 5000
Heat Index: 41°   Visibility: 15mi
Dew Point: 37°   Wind: 2mph
Humidity: 87%   Direction: 300°WNW
Pressure: 29.77"   Gusts: NA
Location:  51.49°N, 108.39°W
Report Text: CYKY 221500Z 30002KT 15SM BKN050 05/03 A2977 RMK SC7 SLP095
Loading
Personal Weather Stations






























Interactive Weather Map
Tropical Storm Tracking
New forecast layout! Learn more

10-Day Weather Forecast

Advertisements
Track Severe Weather on mobile